Time;durP1;ratioP1;P1;durP2;ratioP2;P2;SDS_P1;SDS_P2;PMS_P1;PMS_P2;Temp;Humidity;BMP_temperature;BMP_pressure;BME280_temperature;BME280_humidity;BME280_pressure;Samples;Min_cycle;Max_cycle;Signal;HPM_P1;HPM_P2
2023/04/09 00:00:32;;;;;;;;;;;10.50;70.30;;;;;;9177369;19;19926;-71
2023/04/09 00:03:40;;;;;;;;;;;10.50;70.40;;;;;;9179462;19;19934;-71
2023/04/09 00:06:44;;;;;;;;;;;10.50;70.40;;;;;;9181771;19;20340;-70
2023/04/09 00:09:50;;;;;;;;;;;10.50;70.40;;;;;;9174949;19;19914;-70
2023/04/09 00:12:54;;;;;;;;;;;10.50;70.40;;;;;;9179868;19;19915;-71
2023/04/09 00:15:59;;;;;;;;;;;10.50;70.50;;;;;;9182439;19;19943;-71
2023/04/09 00:19:06;;;;;;;;;;;10.50;70.40;;;;;;9175802;19;19922;-70
2023/04/09 00:22:12;;;;;;;;;;;10.40;70.30;;;;;;9178033;19;19919;-70
2023/04/09 00:25:16;;;;;;;;;;;10.50;70.40;;;;;;9175005;19;19915;-70
2023/04/09 00:28:22;;;;;;;;;;;10.50;70.50;;;;;;9173363;19;19922;-71
2023/04/09 00:31:26;;;;;;;;;;;10.50;70.40;;;;;;9179004;19;19942;-70
2023/04/09 00:34:53;;;;;;;;;;;10.50;70.40;;;;;;9179292;19;19935;-70
2023/04/09 00:37:57;;;;;;;;;;;10.50;70.40;;;;;;9177301;19;19982;-71
2023/04/09 00:41:06;;;;;;;;;;;10.50;70.40;;;;;;9176482;19;19918;-71
2023/04/09 00:44:09;;;;;;;;;;;10.40;70.40;;;;;;9178892;19;19923;-71
2023/04/09 00:47:15;;;;;;;;;;;10.40;70.40;;;;;;9178388;19;19911;-70
2023/04/09 00:50:22;;;;;;;;;;;10.40;70.50;;;;;;9177252;19;19922;-70
2023/04/09 00:53:28;;;;;;;;;;;10.40;70.50;;;;;;9179321;19;19934;-70
2023/04/09 00:56:32;;;;;;;;;;;10.40;70.50;;;;;;9179853;19;19923;-70
2023/04/09 00:59:38;;;;;;;;;;;10.40;70.60;;;;;;9177682;19;19914;-70
2023/04/09 01:02:42;;;;;;;;;;;10.40;70.50;;;;;;9178116;19;19925;-70
2023/04/09 01:05:55;;;;;;;;;;;10.40;70.60;;;;;;9176964;19;19926;-70
2023/04/09 01:09:01;;;;;;;;;;;10.40;70.60;;;;;;9176846;19;20369;-70
2023/04/09 01:12:11;;;;;;;;;;;10.40;70.60;;;;;;9177506;19;19915;-70
2023/04/09 01:15:19;;;;;;;;;;;10.40;70.60;;;;;;9177222;19;19945;-70
2023/04/09 01:18:30;;;;;;;;;;;10.40;70.60;;;;;;9177287;19;20252;-70
2023/04/09 01:21:36;;;;;;;;;;;10.40;70.60;;;;;;9177123;19;19919;-70
2023/04/09 01:24:46;;;;;;;;;;;10.40;70.60;;;;;;9175261;19;19925;-69
2023/04/09 01:27:59;;;;;;;;;;;10.40;70.60;;;;;;9171263;19;19922;-70
2023/04/09 01:31:10;;;;;;;;;;;10.40;70.60;;;;;;9176905;19;19922;-70
2023/04/09 01:34:15;;;;;;;;;;;10.30;70.60;;;;;;9178637;19;19944;-70
2023/04/09 01:37:21;;;;;;;;;;;10.30;70.70;;;;;;9176642;19;20268;-70
2023/04/09 01:40:25;;;;;;;;;;;10.30;70.70;;;;;;9177037;19;20336;-70
2023/04/09 01:43:31;;;;;;;;;;;10.30;70.70;;;;;;9177801;19;19922;-70
2023/04/09 01:46:38;;;;;;;;;;;10.30;70.70;;;;;;9173601;19;19922;-70
2023/04/09 01:49:44;;;;;;;;;;;10.30;70.80;;;;;;9176386;19;19915;-70
2023/04/09 01:52:48;;;;;;;;;;;10.30;70.70;;;;;;9177182;19;19918;-70
2023/04/09 01:55:54;;;;;;;;;;;10.30;70.80;;;;;;9176695;19;19926;-70
2023/04/09 01:58:58;;;;;;;;;;;10.30;70.80;;;;;;9183629;19;19928;-70
2023/04/09 02:02:09;;;;;;;;;;;10.30;70.80;;;;;;9182813;19;19929;-70
2023/04/09 02:05:16;;;;;;;;;;;10.30;70.80;;;;;;9182052;19;19932;-70
2023/04/09 02:08:22;;;;;;;;;;;10.30;70.80;;;;;;9182031;19;20305;-70
2023/04/09 02:11:27;;;;;;;;;;;10.30;70.80;;;;;;9184959;19;19929;-70
2023/04/09 02:14:34;;;;;;;;;;;10.30;70.80;;;;;;9185037;19;19926;-70
2023/04/09 02:17:40;;;;;;;;;;;10.20;70.80;;;;;;9184941;19;20270;-70
2023/04/09 02:20:46;;;;;;;;;;;10.30;70.80;;;;;;9184986;19;19945;-70
2023/04/09 02:23:49;;;;;;;;;;;10.20;70.80;;;;;;9184822;19;19922;-70
2023/04/09 02:26:56;;;;;;;;;;;10.20;70.90;;;;;;9179823;19;19915;-70
2023/04/09 02:30:00;;;;;;;;;;;10.20;70.80;;;;;;9183508;19;19938;-70
2023/04/09 02:33:08;;;;;;;;;;;10.20;70.80;;;;;;9183981;19;19918;-70
2023/04/09 02:36:12;;;;;;;;;;;10.20;70.90;;;;;;9184085;19;19986;-71
2023/04/09 02:39:19;;;;;;;;;;;10.20;70.80;;;;;;9179526;19;19918;-71
2023/04/09 02:42:23;;;;;;;;;;;10.20;70.90;;;;;;9179530;19;19918;-71
2023/04/09 02:45:29;;;;;;;;;;;10.20;70.80;;;;;;9180484;19;19914;-70
2023/04/09 02:48:34;;;;;;;;;;;10.20;70.80;;;;;;9182741;19;19926;-70
2023/04/09 02:51:40;;;;;;;;;;;10.30;70.90;;;;;;9183742;19;20352;-70
2023/04/09 02:54:44;;;;;;;;;;;10.30;70.90;;;;;;9182716;19;19982;-71
2023/04/09 02:57:50;;;;;;;;;;;10.20;70.80;;;;;;9182085;19;19918;-70
2023/04/09 03:00:53;;;;;;;;;;;10.20;70.80;;;;;;9183031;19;19922;-70
2023/04/09 03:04:01;;;;;;;;;;;10.20;70.80;;;;;;9181229;19;19926;-70
2023/04/09 03:07:06;;;;;;;;;;;10.30;70.90;;;;;;9182026;19;20280;-71
2023/04/09 03:10:12;;;;;;;;;;;10.20;70.90;;;;;;9180456;19;19929;-70
2023/04/09 03:13:16;;;;;;;;;;;10.30;70.90;;;;;;9182805;19;19931;-70
2023/04/09 03:16:21;;;;;;;;;;;10.30;70.90;;;;;;9181740;19;20256;-70
2023/04/09 03:19:28;;;;;;;;;;;10.30;70.90;;;;;;9182462;19;19922;-71
2023/04/09 03:22:36;;;;;;;;;;;10.20;70.90;;;;;;9180833;19;19950;-70
2023/04/09 03:26:01;;;;;;;;;;;10.20;70.90;;;;;;9173480;19;19923;-70
2023/04/09 03:29:10;;;;;;;;;;;10.20;70.90;;;;;;9181188;19;19915;-70
2023/04/09 03:32:14;;;;;;;;;;;10.20;71.00;;;;;;9180103;19;19978;-70
2023/04/09 03:35:25;;;;;;;;;;;10.20;71.00;;;;;;9181543;19;20353;-69
2023/04/09 03:38:34;;;;;;;;;;;10.20;71.00;;;;;;9178514;19;19922;-69
2023/04/09 03:41:45;;;;;;;;;;;10.20;71.00;;;;;;9180657;19;19995;-70
2023/04/09 03:44:54;;;;;;;;;;;10.10;70.90;;;;;;9179768;19;20264;-70
2023/04/09 03:48:10;;;;;;;;;;;10.20;71.00;;;;;;9180588;19;19922;-70
2023/04/09 03:51:16;;;;;;;;;;;10.20;71.00;;;;;;9179286;19;19947;-69
2023/04/09 03:54:30;;;;;;;;;;;10.20;71.00;;;;;;9178137;19;20256;-70
2023/04/09 03:57:35;;;;;;;;;;;10.20;71.00;;;;;;9177921;19;20290;-70
2023/04/09 04:00:42;;;;;;;;;;;10.10;71.00;;;;;;9176998;19;19918;-70
2023/04/09 04:04:02;;;;;;;;;;;10.10;71.00;;;;;;9177658;19;19923;-70
2023/04/09 04:07:20;;;;;;;;;;;10.10;71.00;;;;;;9178054;19;19926;-70
2023/04/09 04:10:30;;;;;;;;;;;10.10;71.00;;;;;;9178495;19;20276;-70
2023/04/09 04:13:36;;;;;;;;;;;10.10;71.00;;;;;;9179446;19;20347;-70
2023/04/09 04:16:43;;;;;;;;;;;10.10;71.00;;;;;;9178872;19;19951;-70
2023/04/09 04:19:54;;;;;;;;;;;10.10;71.00;;;;;;9177482;19;19918;-71
2023/04/09 04:23:01;;;;;;;;;;;10.10;71.00;;;;;;9178681;19;19925;-70
2023/04/09 04:26:08;;;;;;;;;;;10.10;71.10;;;;;;9171981;19;19914;-71
2023/04/09 04:29:12;;;;;;;;;;;10.10;71.10;;;;;;9178795;19;20240;-71
2023/04/09 04:32:32;;;;;;;;;;;10.10;71.00;;;;;;9179186;19;19929;-70
2023/04/09 04:35:40;;;;;;;;;;;10.00;71.00;;;;;;9176484;19;19915;-69
2023/04/09 04:38:53;;;;;;;;;;;10.00;71.00;;;;;;9179065;19;20617;-69
2023/04/09 04:42:14;;;;;;;;;;;10.00;71.00;;;;;;9178903;19;19929;-70
2023/04/09 04:45:20;;;;;;;;;;;10.00;71.00;;;;;;9177767;19;19919;-70
2023/04/09 04:48:29;;;;;;;;;;;10.00;71.10;;;;;;9179343;19;19974;-70
2023/04/09 04:51:36;;;;;;;;;;;10.00;71.00;;;;;;9177929;19;19921;-70
2023/04/09 04:54:47;;;;;;;;;;;10.00;71.00;;;;;;9178686;19;19951;-70
2023/04/09 04:57:58;;;;;;;;;;;9.90;71.00;;;;;;9178321;19;19922;-70
2023/04/09 05:01:06;;;;;;;;;;;9.90;71.10;;;;;;9177944;19;19915;-70
2023/04/09 05:04:12;;;;;;;;;;;9.90;71.10;;;;;;9178271;19;19925;-70
2023/04/09 05:07:16;;;;;;;;;;;9.90;71.10;;;;;;9174498;19;19923;-71
2023/04/09 05:10:33;;;;;;;;;;;9.80;71.00;;;;;;9177623;19;19926;-71
2023/04/09 05:13:37;;;;;;;;;;;9.80;71.00;;;;;;9179701;19;19921;-71
2023/04/09 05:16:47;;;;;;;;;;;9.80;71.10;;;;;;9177964;19;19929;-70
2023/04/09 05:19:52;;;;;;;;;;;9.70;71.00;;;;;;9176000;19;19922;-71
2023/04/09 05:23:04;;;;;;;;;;;9.70;71.10;;;;;;9177903;19;19911;-71
2023/04/09 05:26:18;;;;;;;;;;;9.70;71.10;;;;;;9169193;19;19918;-71
2023/04/09 05:29:31;;;;;;;;;;;9.60;71.00;;;;;;9177393;19;19918;-71
2023/04/09 05:32:36;;;;;;;;;;;9.60;71.00;;;;;;9175685;19;19930;-71
2023/04/09 05:35:43;;;;;;;;;;;9.50;71.00;;;;;;9176878;19;20344;-71
2023/04/09 05:38:48;;;;;;;;;;;9.50;71.10;;;;;;9176811;19;20381;-71
2023/04/09 05:41:56;;;;;;;;;;;9.40;71.10;;;;;;9178122;19;20256;-71
2023/04/09 05:45:17;;;;;;;;;;;9.40;71.10;;;;;;9172328;19;21182;-71
2023/04/09 05:48:30;;;;;;;;;;;9.40;71.10;;;;;;9176403;19;19914;-71
2023/04/09 05:51:37;;;;;;;;;;;9.40;71.20;;;;;;9176314;19;19919;-70
2023/04/09 05:54:42;;;;;;;;;;;9.30;71.20;;;;;;9175821;19;19922;-71
2023/04/09 05:57:52;;;;;;;;;;;9.30;71.20;;;;;;9175908;19;19926;-71
2023/04/09 06:00:58;;;;;;;;;;;9.30;71.20;;;;;;9176006;19;19922;-71
2023/04/09 06:04:02;;;;;;;;;;;9.20;71.20;;;;;;9176250;19;20340;-70
2023/04/09 06:07:09;;;;;;;;;;;9.20;71.20;;;;;;9172683;19;19922;-70
2023/04/09 06:10:13;;;;;;;;;;;9.20;71.30;;;;;;9172055;19;20566;-71
2023/04/09 06:13:21;;;;;;;;;;;9.20;71.30;;;;;;9177876;19;19929;-70
2023/04/09 06:16:25;;;;;;;;;;;9.20;71.30;;;;;;9176766;19;19919;-70
2023/04/09 06:19:31;;;;;;;;;;;9.20;71.40;;;;;;9176680;19;19921;-70
2023/04/09 06:22:35;;;;;;;;;;;9.20;71.40;;;;;;9174906;19;20006;-70
2023/04/09 06:25:41;;;;;;;;;;;9.20;71.40;;;;;;9173660;19;19937;-71
2023/04/09 06:28:47;;;;;;;;;;;9.30;71.50;;;;;;9167372;19;20003;-70
2023/04/09 06:31:52;;;;;;;;;;;9.30;71.60;;;;;;9174869;19;19907;-70
2023/04/09 06:34:56;;;;;;;;;;;9.30;71.50;;;;;;9174296;19;20363;-70
2023/04/09 06:38:02;;;;;;;;;;;9.40;71.60;;;;;;9175702;19;19926;-70
2023/04/09 06:41:07;;;;;;;;;;;9.40;71.60;;;;;;9175384;19;19926;-71
2023/04/09 06:44:15;;;;;;;;;;;9.50;71.60;;;;;;9176875;19;19922;-70
2023/04/09 06:47:19;;;;;;;;;;;9.60;71.60;;;;;;9176670;19;20256;-70
2023/04/09 06:50:25;;;;;;;;;;;9.60;71.60;;;;;;9177533;19;20261;-70
2023/04/09 06:53:29;;;;;;;;;;;9.70;71.60;;;;;;9181909;19;19925;-71
2023/04/09 06:56:35;;;;;;;;;;;9.80;71.70;;;;;;9181455;19;19915;-70
2023/04/09 06:59:41;;;;;;;;;;;9.90;71.60;;;;;;9181417;19;19922;-71
2023/04/09 07:02:47;;;;;;;;;;;10.00;71.60;;;;;;9180238;19;20336;-70
2023/04/09 07:05:51;;;;;;;;;;;10.10;71.70;;;;;;9170717;19;20280;-69
2023/04/09 07:08:57;;;;;;;;;;;10.20;71.60;;;;;;9174036;19;19915;-69
2023/04/09 07:12:00;;;;;;;;;;;10.30;71.60;;;;;;9179814;19;19911;-70
2023/04/09 07:15:10;;;;;;;;;;;10.30;71.60;;;;;;9178437;19;20256;-69
2023/04/09 07:18:14;;;;;;;;;;;10.50;71.70;;;;;;9172480;19;19922;-71
2023/04/09 07:21:20;;;;;;;;;;;10.50;71.60;;;;;;9168680;19;20450;-73
2023/04/09 07:24:23;;;;;;;;;;;10.60;71.60;;;;;;9169963;19;19926;-73
2023/04/09 07:27:32;;;;;;;;;;;10.70;71.50;;;;;;9153666;19;19917;-72
2023/04/09 07:30:38;;;;;;;;;;;10.80;71.50;;;;;;9163009;19;19926;-72
2023/04/09 07:33:44;;;;;;;;;;;10.90;71.50;;;;;;9160187;19;19923;-75
2023/04/09 07:36:48;;;;;;;;;;;10.90;71.50;;;;;;9161888;19;19918;-74
2023/04/09 07:39:54;;;;;;;;;;;11.00;71.50;;;;;;9163094;19;19923;-70
2023/04/09 07:42:58;;;;;;;;;;;11.10;71.40;;;;;;9163054;19;19929;-70
2023/04/09 07:46:05;;;;;;;;;;;11.20;71.40;;;;;;9164718;19;19922;-67
2023/04/09 07:49:09;;;;;;;;;;;11.30;71.50;;;;;;9167557;19;19918;-67
2023/04/09 07:52:15;;;;;;;;;;;11.30;71.40;;;;;;9166894;19;20352;-67
2023/04/09 07:55:19;;;;;;;;;;;11.40;71.40;;;;;;9163024;19;19949;-67
2023/04/09 07:58:25;;;;;;;;;;;11.50;71.40;;;;;;9164415;19;20294;-70
2023/04/09 08:01:31;;;;;;;;;;;11.60;71.40;;;;;;9171150;19;19918;-69
2023/04/09 08:04:37;;;;;;;;;;;11.70;71.40;;;;;;9173174;19;19914;-69
2023/04/09 08:07:41;;;;;;;;;;;11.80;71.50;;;;;;9170420;19;19940;-69
2023/04/09 08:10:47;;;;;;;;;;;11.90;71.40;;;;;;9172862;19;19938;-70
2023/04/09 08:13:51;;;;;;;;;;;12.00;71.40;;;;;;9170916;19;19922;-70
2023/04/09 08:17:00;;;;;;;;;;;12.10;71.40;;;;;;9171921;19;20309;-69
2023/04/09 08:20:04;;;;;;;;;;;12.20;71.40;;;;;;9162287;19;20359;-69
2023/04/09 08:23:10;;;;;;;;;;;12.30;71.40;;;;;;9169098;19;19990;-73
2023/04/09 08:26:14;;;;;;;;;;;12.40;71.30;;;;;;9158503;19;19918;-69
2023/04/09 08:29:20;;;;;;;;;;;12.60;71.40;;;;;;9164990;19;19919;-68
2023/04/09 08:32:26;;;;;;;;;;;12.70;71.30;;;;;;9165764;19;19937;-69
2023/04/09 08:35:31;;;;;;;;;;;12.90;72.00;;;;;;9170379;19;20637;-67
2023/04/09 08:38:35;;;;;;;;;;;13.10;71.30;;;;;;9172616;19;19975;-68
2023/04/09 08:41:43;;;;;;;;;;;13.20;71.20;;;;;;9170134;19;20267;-69
2023/04/09 08:44:47;;;;;;;;;;;13.40;71.20;;;;;;9168372;19;20369;-69
2023/04/09 08:47:58;;;;;;;;;;;13.60;71.10;;;;;;9168965;19;19926;-68
2023/04/09 08:51:02;;;;;;;;;;;13.80;71.10;;;;;;9171964;19;20352;-69
2023/04/09 08:54:08;;;;;;;;;;;14.00;71.10;;;;;;9171037;19;19937;-68
2023/04/09 08:57:12;;;;;;;;;;;14.20;71.00;;;;;;9171758;19;19922;-69
2023/04/09 09:00:18;;;;;;;;;;;14.40;71.00;;;;;;9172930;19;20260;-70
2023/04/09 09:03:24;;;;;;;;;;;14.50;70.80;;;;;;9172302;19;19919;-70
2023/04/09 09:06:31;;;;;;;;;;;14.70;70.80;;;;;;9170202;19;19933;-71
2023/04/09 09:09:51;;;;;;;;;;;14.90;70.70;;;;;;9170263;19;19915;-71
2023/04/09 09:12:57;;;;;;;;;;;15.10;70.60;;;;;;9167400;19;20255;-72
2023/04/09 09:16:13;;;;;;;;;;;15.20;70.50;;;;;;9175928;19;19923;-70
2023/04/09 09:19:32;;;;;;;;;;;15.40;70.50;;;;;;9178658;19;19934;-71
2023/04/09 09:22:49;;;;;;;;;;;15.60;70.50;;;;;;9179057;19;19925;-72
2023/04/09 09:26:01;;;;;;;;;;;15.70;70.30;;;;;;9172062;19;19951;-70
2023/04/09 09:29:08;;;;;;;;;;;15.90;70.30;;;;;;9178972;19;19925;-70
2023/04/09 09:32:14;;;;;;;;;;;16.00;70.20;;;;;;9179486;19;20229;-71
2023/04/09 09:35:21;;;;;;;;;;;16.10;70.10;;;;;;9176944;19;20267;-71
2023/04/09 09:38:26;;;;;;;;;;;16.30;70.10;;;;;;9178030;19;19914;-71
2023/04/09 09:41:30;;;;;;;;;;;16.50;70.00;;;;;;9179472;19;19919;-71
2023/04/09 09:44:36;;;;;;;;;;;16.60;70.00;;;;;;9177219;19;19915;-71
2023/04/09 09:47:41;;;;;;;;;;;16.80;70.00;;;;;;9175850;19;20265;-70
2023/04/09 09:50:50;;;;;;;;;;;16.90;69.80;;;;;;9178782;19;19949;-73
2023/04/09 09:53:56;;;;;;;;;;;17.00;69.70;;;;;;9178762;19;19911;-71
2023/04/09 09:57:06;;;;;;;;;;;17.10;69.70;;;;;;9178098;19;19926;-69
2023/04/09 10:00:12;;;;;;;;;;;17.20;69.60;;;;;;9175065;19;19928;-70
2023/04/09 10:03:22;;;;;;;;;;;17.40;69.60;;;;;;9163797;19;20340;-70
2023/04/09 10:06:29;;;;;;;;;;;17.50;69.60;;;;;;9167425;19;19986;-71
2023/04/09 10:09:35;;;;;;;;;;;17.60;69.50;;;;;;9167903;19;20472;-72
2023/04/09 10:12:40;;;;;;;;;;;17.70;69.40;;;;;;9165479;19;19978;-72
2023/04/09 10:15:46;;;;;;;;;;;17.80;69.30;;;;;;9169700;19;19941;-72
2023/04/09 10:18:50;;;;;;;;;;;18.00;69.30;;;;;;9172691;19;19919;-72
2023/04/09 10:22:03;;;;;;;;;;;18.00;69.20;;;;;;9178721;19;19930;-71
2023/04/09 10:25:07;;;;;;;;;;;18.10;69.10;;;;;;9175130;19;19922;-72
2023/04/09 10:28:16;;;;;;;;;;;18.20;69.00;;;;;;9168799;19;19919;-71
2023/04/09 10:31:21;;;;;;;;;;;18.30;69.00;;;;;;9175924;19;19933;-72
2023/04/09 10:34:28;;;;;;;;;;;18.40;68.90;;;;;;9174913;19;20333;-72
2023/04/09 10:37:36;;;;;;;;;;;18.50;68.80;;;;;;9177763;19;19982;-73
2023/04/09 10:40:42;;;;;;;;;;;18.60;69.40;;;;;;9178460;19;19934;-72
2023/04/09 10:43:47;;;;;;;;;;;18.70;68.80;;;;;;9176617;19;19923;-71
2023/04/09 10:46:54;;;;;;;;;;;18.80;68.60;;;;;;9173887;19;19911;-72
2023/04/09 10:49:58;;;;;;;;;;;18.90;68.50;;;;;;9174893;19;19919;-71
2023/04/09 10:53:06;;;;;;;;;;;19.00;68.50;;;;;;9175972;19;19914;-71
2023/04/09 10:56:15;;;;;;;;;;;19.10;68.40;;;;;;9177804;19;20010;-73
2023/04/09 10:59:21;;;;;;;;;;;19.20;68.30;;;;;;9175338;19;19915;-73
2023/04/09 11:02:39;;;;;;;;;;;19.30;68.20;;;;;;9176336;19;19942;-72
2023/04/09 11:05:48;;;;;;;;;;;19.30;68.10;;;;;;9173613;19;20488;-72
2023/04/09 11:08:55;;;;;;;;;;;19.30;68.00;;;;;;9173279;19;19922;-72
2023/04/09 11:12:02;;;;;;;;;;;19.40;67.90;;;;;;9176215;19;20344;-71
2023/04/09 11:15:07;;;;;;;;;;;19.40;67.80;;;;;;9175855;19;20288;-72
2023/04/09 11:18:15;;;;;;;;;;;19.50;67.80;;;;;;9174799;19;19927;-72
2023/04/09 11:21:18;;;;;;;;;;;19.60;67.70;;;;;;9176128;19;19919;-72
2023/04/09 11:24:27;;;;;;;;;;;19.60;67.60;;;;;;9174764;19;19915;-72
2023/04/09 11:27:30;;;;;;;;;;;19.70;67.60;;;;;;9169341;19;19922;-71
2023/04/09 11:30:37;;;;;;;;;;;19.80;67.50;;;;;;9174681;19;20344;-72
2023/04/09 11:33:41;;;;;;;;;;;19.80;67.40;;;;;;9175608;19;19925;-70
2023/04/09 11:36:49;;;;;;;;;;;19.90;67.40;;;;;;9175824;19;19934;-73
2023/04/09 11:39:57;;;;;;;;;;;19.90;67.30;;;;;;9174346;19;19932;-72
2023/04/09 11:43:03;;;;;;;;;;;20.00;67.20;;;;;;9173851;19;19926;-73
2023/04/09 11:46:08;;;;;;;;;;;20.00;67.10;;;;;;9173735;19;20290;-73
2023/04/09 11:49:14;;;;;;;;;;;20.00;66.90;;;;;;9174137;19;19918;-72
2023/04/09 11:52:18;;;;;;;;;;;20.00;66.90;;;;;;9176155;19;19957;-72
2023/04/09 11:55:27;;;;;;;;;;;20.00;66.90;;;;;;9175977;19;19937;-71
2023/04/09 11:58:31;;;;;;;;;;;20.00;67.10;;;;;;9172840;19;19923;-72
2023/04/09 12:01:36;;;;;;;;;;;20.10;66.90;;;;;;9172415;19;20276;-72
2023/04/09 12:04:49;;;;;;;;;;;20.10;66.70;;;;;;9173457;19;20430;-72
2023/04/09 12:07:58;;;;;;;;;;;20.10;66.60;;;;;;9175086;19;19918;-71
2023/04/09 12:11:11;;;;;;;;;;;20.20;66.60;;;;;;9180380;19;19915;-71
2023/04/09 12:14:18;;;;;;;;;;;20.20;66.50;;;;;;9181494;19;19923;-71
2023/04/09 12:17:22;;;;;;;;;;;20.20;66.40;;;;;;9180918;19;20353;-72
2023/04/09 12:20:28;;;;;;;;;;;20.20;66.30;;;;;;9181441;19;19926;-70
2023/04/09 12:23:33;;;;;;;;;;;20.30;66.20;;;;;;9180655;19;19919;-70
2023/04/09 12:26:41;;;;;;;;;;;20.30;66.10;;;;;;9172974;19;19926;-71
2023/04/09 12:29:45;;;;;;;;;;;20.30;66.10;;;;;;9179033;19;19926;-71
2023/04/09 12:32:51;;;;;;;;;;;20.30;66.00;;;;;;9181275;19;19930;-69
2023/04/09 12:35:57;;;;;;;;;;;20.30;65.90;;;;;;9181483;19;19914;-70
2023/04/09 12:39:03;;;;;;;;;;;20.20;65.90;;;;;;9180068;19;19926;-71
2023/04/09 12:42:09;;;;;;;;;;;20.20;65.80;;;;;;9176398;19;19982;-70
2023/04/09 12:45:16;;;;;;;;;;;20.10;65.70;;;;;;9167140;19;19926;-69
2023/04/09 12:48:20;;;;;;;;;;;20.00;65.70;;;;;;9169038;19;19919;-69
2023/04/09 12:51:25;;;;;;;;;;;20.00;65.70;;;;;;9172912;19;19926;-69
2023/04/09 12:54:29;;;;;;;;;;;20.00;65.70;;;;;;9171242;19;19911;-70
2023/04/09 12:57:37;;;;;;;;;;;19.90;66.00;;;;;;9171691;19;20607;-68
2023/04/09 13:00:41;;;;;;;;;;;19.90;65.60;;;;;;9170332;19;20349;-69
2023/04/09 13:03:47;;;;;;;;;;;19.90;65.60;;;;;;9172534;19;19919;-68
2023/04/09 13:06:51;;;;;;;;;;;19.90;65.50;;;;;;9171079;19;20410;-71
2023/04/09 13:09:58;;;;;;;;;;;20.00;65.50;;;;;;9167542;19;19938;-70
2023/04/09 13:13:04;;;;;;;;;;;20.10;65.50;;;;;;9172581;19;19938;-70
2023/04/09 13:16:10;;;;;;;;;;;20.10;65.30;;;;;;9173304;19;20295;-69
2023/04/09 13:19:14;;;;;;;;;;;20.10;65.20;;;;;;9171836;19;19934;-69
2023/04/09 13:22:20;;;;;;;;;;;20.20;65.20;;;;;;9170391;19;19926;-70
2023/04/09 13:25:24;;;;;;;;;;;20.20;65.10;;;;;;9171217;19;19917;-71
2023/04/09 13:28:32;;;;;;;;;;;20.30;65.10;;;;;;9164785;19;19926;-70
2023/04/09 13:31:36;;;;;;;;;;;20.30;64.90;;;;;;9177296;19;19922;-69
2023/04/09 13:34:42;;;;;;;;;;;20.20;64.80;;;;;;9175886;19;19998;-70
2023/04/09 13:37:45;;;;;;;;;;;20.20;64.70;;;;;;9178331;19;19922;-70
2023/04/09 13:40:51;;;;;;;;;;;20.30;64.70;;;;;;9159181;19;19921;-69
2023/04/09 13:43:57;;;;;;;;;;;20.20;64.60;;;;;;9154086;19;19923;-69
2023/04/09 13:47:03;;;;;;;;;;;20.10;64.50;;;;;;9153817;19;19922;-69
2023/04/09 13:50:09;;;;;;;;;;;20.10;65.10;;;;;;9155097;19;19918;-69
2023/04/09 13:53:14;;;;;;;;;;;20.00;64.40;;;;;;9154363;19;19930;-70
2023/04/09 13:56:18;;;;;;;;;;;19.90;64.40;;;;;;9156432;19;19929;-69
2023/04/09 13:59:26;;;;;;;;;;;19.90;64.40;;;;;;9161114;19;19919;-69
2023/04/09 14:02:30;;;;;;;;;;;19.80;64.40;;;;;;9162301;19;20413;-69
2023/04/09 14:05:37;;;;;;;;;;;19.70;64.30;;;;;;9159258;19;19911;-70
2023/04/09 14:08:40;;;;;;;;;;;19.70;64.40;;;;;;9155623;19;20341;-70
2023/04/09 14:11:46;;;;;;;;;;;19.60;64.30;;;;;;9161292;19;19911;-70
2023/04/09 14:14:52;;;;;;;;;;;19.60;64.30;;;;;;9161991;19;20729;-70
2023/04/09 14:17:58;;;;;;;;;;;19.60;64.30;;;;;;9157132;19;19918;-70
2023/04/09 14:21:02;;;;;;;;;;;19.60;64.20;;;;;;9161285;19;19956;-69
2023/04/09 14:24:08;;;;;;;;;;;19.50;64.20;;;;;;9158903;19;20253;-71
2023/04/09 14:27:12;;;;;;;;;;;19.50;64.20;;;;;;9151648;19;20316;-71
2023/04/09 14:30:20;;;;;;;;;;;19.40;64.10;;;;;;9159532;19;19923;-70
2023/04/09 14:33:24;;;;;;;;;;;19.40;64.20;;;;;;9157849;19;20159;-70
2023/04/09 14:36:30;;;;;;;;;;;19.30;64.00;;;;;;9162111;19;19926;-70
2023/04/09 14:39:34;;;;;;;;;;;19.30;64.00;;;;;;9157819;19;20427;-70
2023/04/09 14:42:40;;;;;;;;;;;19.20;63.90;;;;;;9158910;19;19915;-70
2023/04/09 14:45:46;;;;;;;;;;;19.20;63.90;;;;;;9158638;19;19923;-70
2023/04/09 14:48:52;;;;;;;;;;;19.10;63.80;;;;;;9159002;19;19978;-70
2023/04/09 14:51:56;;;;;;;;;;;19.20;63.80;;;;;;9156077;19;19922;-70
2023/04/09 14:55:02;;;;;;;;;;;19.10;63.80;;;;;;9157179;19;19926;-70
2023/04/09 14:58:07;;;;;;;;;;;19.00;63.70;;;;;;9160996;19;20033;-70
2023/04/09 15:01:14;;;;;;;;;;;18.90;63.70;;;;;;9157332;19;19926;-70
2023/04/09 15:04:18;;;;;;;;;;;18.90;63.70;;;;;;9156842;19;19930;-70
2023/04/09 15:07:24;;;;;;;;;;;18.80;63.60;;;;;;9165277;19;19915;-70
2023/04/09 15:10:28;;;;;;;;;;;18.70;63.60;;;;;;9167541;19;19929;-70
2023/04/09 15:13:34;;;;;;;;;;;18.70;63.60;;;;;;9166956;19;19934;-69
2023/04/09 15:16:40;;;;;;;;;;;18.60;63.50;;;;;;9167097;19;19975;-67
2023/04/09 15:19:46;;;;;;;;;;;18.50;63.60;;;;;;9168962;19;19926;-68
2023/04/09 15:22:50;;;;;;;;;;;18.40;63.50;;;;;;9164271;19;19952;-69
2023/04/09 15:25:56;;;;;;;;;;;18.30;63.50;;;;;;9168299;19;20304;-65
2023/04/09 15:29:02;;;;;;;;;;;18.30;63.50;;;;;;9170896;19;20356;-66
2023/04/09 15:32:10;;;;;;;;;;;18.10;63.50;;;;;;9174088;19;20266;-65
2023/04/09 15:35:17;;;;;;;;;;;18.10;63.50;;;;;;9176078;19;20027;-65
2023/04/09 15:40:13;;;;;;;19.73;7.82;;;;;;;;;;9208886;19;20122;-71
2023/04/09 15:43:19;;;;;;;14.73;7.82;;;17.90;62.20;;;;;;9204864;19;20011;-70
2023/04/09 15:46:23;;;;;;;17.88;8.27;;;17.80;62.40;;;;;;9206276;19;20026;-70
2023/04/09 15:49:29;;;;;;;12.60;8.07;;;17.60;62.20;;;;;;9205737;19;20039;-69
2023/04/09 15:52:34;;;;;;;13.88;8.00;;;;;;;;;;9202957;19;20015;-69
2023/04/09 15:55:42;;;;;;;12.77;7.35;;;17.30;61.70;;;;;;9202411;19;20026;-70
2023/04/09 15:58:46;;;;;;;14.80;7.82;;;17.20;62.00;;;;;;9204147;19;20416;-69
2023/04/09 16:01:53;;;;;;;15.68;8.48;;;17.10;62.00;;;;;;9204661;19;20010;-69
2023/04/09 16:04:57;;;;;;;16.33;9.40;;;17.00;61.90;;;;;;9203741;19;20493;-69
2023/04/09 16:08:03;;;;;;;14.27;7.93;;;16.90;62.00;;;;;;9201934;19;20014;-69
2023/04/09 16:11:09;;;;;;;12.32;8.52;;;16.80;61.70;;;;;;9202783;19;20010;-70
2023/04/09 16:14:15;;;;;;;14.57;8.65;;;16.80;64.00;;;;;;9203113;19;20019;-70
2023/04/09 16:17:19;;;;;;;;;;;16.60;61.40;;;;;;9201826;19;20027;-69
2023/04/09 16:20:25;;;;;;;14.82;8.05;;;16.50;61.70;;;;;;9201072;19;19921;-69
2023/04/09 16:23:30;;;;;;;12.95;7.90;;;16.40;61.60;;;;;;9204728;19;20018;-69
2023/04/09 16:26:38;;;;;;;15.10;8.88;;;16.40;61.50;;;;;;9198592;19;20014;-69
2023/04/09 16:29:42;;;;;;;15.63;8.30;;;16.30;61.20;;;;;;9198519;19;20022;-69
2023/04/09 16:32:48;;;;;;;16.75;9.48;;;16.20;60.60;;;;;;9201508;19;20025;-69
2023/04/09 16:35:52;;;;;;;;;;;16.20;61.00;;;;;;9199984;19;20818;-68
2023/04/09 16:38:59;;;;;;;16.35;8.95;;;16.10;61.30;;;;;;9207320;19;19918;-68
2023/04/09 16:42:05;;;;;;;13.30;7.55;;;16.10;61.40;;;;;;9208938;19;20032;-68
2023/04/09 16:45:12;;;;;;;14.05;8.95;;;16.10;61.00;;;;;;9199148;19;20475;-68
2023/04/09 16:48:16;;;;;;;13.80;9.23;;;16.00;61.00;;;;;;9200221;19;21656;-68
2023/04/09 16:51:22;;;;;;;13.50;8.40;;;16.00;61.00;;;;;;9168148;19;20029;-69
2023/04/09 16:54:26;;;;;;;16.77;9.23;;;15.90;60.90;;;;;;9173815;19;20025;-69
2023/04/09 16:57:35;;;;;;;14.40;8.48;;;15.90;60.90;;;;;;9177053;19;20368;-68
2023/04/09 17:00:39;;;;;;;15.23;8.68;;;15.90;60.70;;;;;;9182169;19;20017;-69
2023/04/09 17:03:45;;;;;;;15.05;8.75;;;15.80;60.60;;;;;;9180136;19;20499;-68
2023/04/09 17:06:50;;;;;;;16.23;9.20;;;15.80;60.60;;;;;;9180237;19;20019;-68
2023/04/09 17:09:56;;;;;;;18.80;9.63;;;15.70;60.50;;;;;;9179041;19;20026;-68
2023/04/09 17:13:02;;;;;;;15.70;9.00;;;15.70;60.50;;;;;;9180848;19;20045;-69
2023/04/09 17:16:10;;;;;;;14.88;8.38;;;15.60;60.30;;;;;;9180369;19;20014;-69
2023/04/09 17:19:14;;;;;;;15.20;8.93;;;15.60;60.30;;;;;;9179724;19;20018;-68
2023/04/09 17:22:20;;;;;;;15.63;8.82;;;15.50;60.30;;;;;;9180314;19;20018;-69
2023/04/09 17:25:25;;;;;;;12.60;8.07;;;15.50;61.00;;;;;;9179572;19;20011;-69
2023/04/09 17:28:33;;;;;;;17.73;9.98;;;15.40;60.30;;;;;;9176230;19;20356;-69
2023/04/09 17:31:39;;;;;;;16.00;9.40;;;15.40;60.30;;;;;;9180662;19;20034;-69
2023/04/09 17:34:48;;;;;;;16.30;9.25;;;15.30;60.30;;;;;;9178854;19;20023;-69
2023/04/09 17:37:52;;;;;;;19.92;9.88;;;15.20;60.30;;;;;;9180855;19;20010;-68
2023/04/09 17:40:59;;;;;;;15.60;9.27;;;15.20;60.30;;;;;;9178212;19;20459;-69
2023/04/09 17:44:05;;;;;;;16.42;9.63;;;15.10;60.20;;;;;;9180346;19;20038;-68
2023/04/09 17:47:12;;;;;;;15.73;8.60;;;15.10;60.20;;;;;;9179437;19;20025;-68
2023/04/09 17:50:16;;;;;;;16.60;9.35;;;15.00;60.30;;;;;;9180286;19;20404;-68
2023/04/09 17:53:22;;;;;;;20.60;9.32;;;14.90;60.30;;;;;;9178264;19;20014;-68